sensor_id;sensor_type;location;lat;lon;timestamp;temperature;humidity
42147;DHT22;27815;43.410;11.852;2022-07-10T00:03:03;20.20;42.60
42147;DHT22;27815;43.410;11.852;2022-07-10T00:07:07;20.20;42.40
42147;DHT22;27815;43.410;11.852;2022-07-10T00:11:10;20.30;42.20
42147;DHT22;27815;43.410;11.852;2022-07-10T00:15:13;20.30;42.30
42147;DHT22;27815;43.410;11.852;2022-07-10T00:19:17;20.30;42.30
42147;DHT22;27815;43.410;11.852;2022-07-10T00:23:19;20.20;42.40
42147;DHT22;27815;43.410;11.852;2022-07-10T00:27:22;20.20;42.30
42147;DHT22;27815;43.410;11.852;2022-07-10T00:31:26;20.20;42.10
42147;DHT22;27815;43.410;11.852;2022-07-10T00:35:29;20.30;42.00
42147;DHT22;27815;43.410;11.852;2022-07-10T00:39:31;20.30;42.00
42147;DHT22;27815;43.410;11.852;2022-07-10T00:47:56;20.20;42.00
42147;DHT22;27815;43.410;11.852;2022-07-10T00:52:00;20.20;42.10
42147;DHT22;27815;43.410;11.852;2022-07-10T00:56:05;20.20;42.10
42147;DHT22;27815;43.410;11.852;2022-07-10T01:00:09;20.20;42.10
42147;DHT22;27815;43.410;11.852;2022-07-10T01:04:16;20.20;42.00
42147;DHT22;27815;43.410;11.852;2022-07-10T01:08:19;20.20;42.10
42147;DHT22;27815;43.410;11.852;2022-07-10T01:12:22;20.10;42.00
42147;DHT22;27815;43.410;11.852;2022-07-10T01:16:25;20.10;42.10
42147;DHT22;27815;43.410;11.852;2022-07-10T01:20:32;20.10;42.10
42147;DHT22;27815;43.410;11.852;2022-07-10T01:24:35;20.00;42.20
42147;DHT22;27815;43.410;11.852;2022-07-10T01:28:41;20.00;42.30
42147;DHT22;27815;43.410;11.852;2022-07-10T01:32:44;20.00;42.20
42147;DHT22;27815;43.410;11.852;2022-07-10T01:36:47;20.00;42.10
42147;DHT22;27815;43.410;11.852;2022-07-10T01:40:50;20.00;42.20
42147;DHT22;27815;43.410;11.852;2022-07-10T01:44:53;20.00;42.60
42147;DHT22;27815;43.410;11.852;2022-07-10T01:48:57;19.80;42.90
42147;DHT22;27815;43.410;11.852;2022-07-10T01:53:00;19.70;43.00
42147;DHT22;27815;43.410;11.852;2022-07-10T01:57:04;19.70;43.10
42147;DHT22;27815;43.410;11.852;2022-07-10T02:01:08;19.60;43.20
42147;DHT22;27815;43.410;11.852;2022-07-10T02:05:11;19.60;43.30
42147;DHT22;27815;43.410;11.852;2022-07-10T02:09:15;19.60;43.30
42147;DHT22;27815;43.410;11.852;2022-07-10T02:13:18;19.50;43.30
42147;DHT22;27815;43.410;11.852;2022-07-10T02:17:22;19.60;43.20
42147;DHT22;27815;43.410;11.852;2022-07-10T02:21:26;19.70;43.20
42147;DHT22;27815;43.410;11.852;2022-07-10T02:25:29;19.80;43.10
42147;DHT22;27815;43.410;11.852;2022-07-10T02:29:31;19.70;43.10
42147;DHT22;27815;43.410;11.852;2022-07-10T02:33:34;19.70;43.10
42147;DHT22;27815;43.410;11.852;2022-07-10T02:37:39;19.70;43.00
42147;DHT22;27815;43.410;11.852;2022-07-10T02:41:42;19.80;42.90
42147;DHT22;27815;43.410;11.852;2022-07-10T02:45:45;19.90;42.60
42147;DHT22;27815;43.410;11.852;2022-07-10T02:49:48;20.00;42.40
42147;DHT22;27815;43.410;11.852;2022-07-10T02:53:51;19.90;43.40
42147;DHT22;27815;43.410;11.852;2022-07-10T02:57:54;19.40;44.20
42147;DHT22;27815;43.410;11.852;2022-07-10T03:01:57;19.30;43.80
42147;DHT22;27815;43.410;11.852;2022-07-10T03:06:00;19.40;43.50
42147;DHT22;27815;43.410;11.852;2022-07-10T03:10:03;19.60;43.00
42147;DHT22;27815;43.410;11.852;2022-07-10T03:14:05;19.80;42.70
42147;DHT22;27815;43.410;11.852;2022-07-10T03:18:08;20.00;42.50
42147;DHT22;27815;43.410;11.852;2022-07-10T03:22:13;20.00;42.30
42147;DHT22;27815;43.410;11.852;2022-07-10T03:26:15;20.10;42.20
42147;DHT22;27815;43.410;11.852;2022-07-10T03:30:19;20.10;42.10
42147;DHT22;27815;43.410;11.852;2022-07-10T03:34:22;20.20;42.00
42147;DHT22;27815;43.410;11.852;2022-07-10T03:38:25;20.20;41.80
42147;DHT22;27815;43.410;11.852;2022-07-10T03:42:28;20.30;41.80
42147;DHT22;27815;43.410;11.852;2022-07-10T03:46:31;20.30;41.90
42147;DHT22;27815;43.410;11.852;2022-07-10T03:50:34;20.20;42.00
42147;DHT22;27815;43.410;11.852;2022-07-10T03:54:36;20.20;42.00
42147;DHT22;27815;43.410;11.852;2022-07-10T03:58:40;20.20;41.80
42147;DHT22;27815;43.410;11.852;2022-07-10T04:02:43;20.30;42.40
42147;DHT22;27815;43.410;11.852;2022-07-10T04:06:46;19.90;43.20
42147;DHT22;27815;43.410;11.852;2022-07-10T04:10:49;19.40;44.00
42147;DHT22;27815;43.410;11.852;2022-07-10T04:14:51;19.10;44.70
42147;DHT22;27815;43.410;11.852;2022-07-10T04:18:54;18.80;45.20
42147;DHT22;27815;43.410;11.852;2022-07-10T04:22:57;18.60;45.90
42147;DHT22;27815;43.410;11.852;2022-07-10T04:27:00;18.40;46.40
42147;DHT22;27815;43.410;11.852;2022-07-10T04:31:03;18.10;47.30
42147;DHT22;27815;43.410;11.852;2022-07-10T04:35:06;17.90;47.80
42147;DHT22;27815;43.410;11.852;2022-07-10T04:39:09;17.70;48.30
42147;DHT22;27815;43.410;11.852;2022-07-10T04:43:12;17.60;48.50
42147;DHT22;27815;43.410;11.852;2022-07-10T04:47:15;17.60;48.60
42147;DHT22;27815;43.410;11.852;2022-07-10T04:51:18;17.50;49.20
42147;DHT22;27815;43.410;11.852;2022-07-10T04:55:21;17.50;49.60
42147;DHT22;27815;43.410;11.852;2022-07-10T04:59:25;17.50;50.00
42147;DHT22;27815;43.410;11.852;2022-07-10T05:03:28;17.40;50.50
42147;DHT22;27815;43.410;11.852;2022-07-10T05:07:31;17.50;50.60
42147;DHT22;27815;43.410;11.852;2022-07-10T05:11:34;17.50;50.80
42147;DHT22;27815;43.410;11.852;2022-07-10T05:15:38;17.50;50.90
42147;DHT22;27815;43.410;11.852;2022-07-10T05:19:42;17.60;51.10
42147;DHT22;27815;43.410;11.852;2022-07-10T05:23:44;17.80;51.20
42147;DHT22;27815;43.410;11.852;2022-07-10T05:27:47;18.00;50.90
42147;DHT22;27815;43.410;11.852;2022-07-10T05:31:50;18.10;50.70
42147;DHT22;27815;43.410;11.852;2022-07-10T05:35:53;18.30;50.70
42147;DHT22;27815;43.410;11.852;2022-07-10T05:39:56;18.50;50.70
42147;DHT22;27815;43.410;11.852;2022-07-10T05:44:00;18.70;50.50
42147;DHT22;27815;43.410;11.852;2022-07-10T05:48:03;18.90;50.80
42147;DHT22;27815;43.410;11.852;2022-07-10T05:52:06;19.10;50.90
42147;DHT22;27815;43.410;11.852;2022-07-10T05:56:09;19.20;51.00
42147;DHT22;27815;43.410;11.852;2022-07-10T06:00:12;19.30;50.90
42147;DHT22;27815;43.410;11.852;2022-07-10T06:04:15;19.50;50.60
42147;DHT22;27815;43.410;11.852;2022-07-10T06:08:18;19.70;50.40
42147;DHT22;27815;43.410;11.852;2022-07-10T06:12:22;19.90;50.50
42147;DHT22;27815;43.410;11.852;2022-07-10T06:16:25;20.20;50.30
42147;DHT22;27815;43.410;11.852;2022-07-10T06:20:29;20.50;49.70
42147;DHT22;27815;43.410;11.852;2022-07-10T06:24:32;20.80;49.00
42147;DHT22;27815;43.410;11.852;2022-07-10T06:28:35;21.10;48.30
42147;DHT22;27815;43.410;11.852;2022-07-10T06:32:39;21.40;47.90
42147;DHT22;27815;43.410;11.852;2022-07-10T06:36:42;21.80;47.30
42147;DHT22;27815;43.410;11.852;2022-07-10T06:40:45;22.00;46.50
42147;DHT22;27815;43.410;11.852;2022-07-10T06:44:50;22.30;46.10
42147;DHT22;27815;43.410;11.852;2022-07-10T06:48:53;22.70;45.70
42147;DHT22;27815;43.410;11.852;2022-07-10T06:52:56;23.10;45.00
42147;DHT22;27815;43.410;11.852;2022-07-10T06:56:59;23.50;44.50
42147;DHT22;27815;43.410;11.852;2022-07-10T07:01:02;23.70;44.00
42147;DHT22;27815;43.410;11.852;2022-07-10T07:05:06;23.70;43.80
42147;DHT22;27815;43.410;11.852;2022-07-10T07:09:10;23.80;43.60
42147;DHT22;27815;43.410;11.852;2022-07-10T07:13:12;24.00;43.60
42147;DHT22;27815;43.410;11.852;2022-07-10T07:17:16;24.30;43.10
42147;DHT22;27815;43.410;11.852;2022-07-10T07:21:26;24.70;42.40
42147;DHT22;27815;43.410;11.852;2022-07-10T07:25:47;24.90;42.10
42147;DHT22;27815;43.410;11.852;2022-07-10T07:29:50;25.10;41.70
42147;DHT22;27815;43.410;11.852;2022-07-10T07:33:53;25.50;41.20
42147;DHT22;27815;43.410;11.852;2022-07-10T07:37:57;25.90;40.50
42147;DHT22;27815;43.410;11.852;2022-07-10T07:42:00;26.20;39.80
42147;DHT22;27815;43.410;11.852;2022-07-10T07:46:03;26.20;39.10
42147;DHT22;27815;43.410;11.852;2022-07-10T07:50:06;26.20;39.00
42147;DHT22;27815;43.410;11.852;2022-07-10T07:54:09;26.40;38.50
42147;DHT22;27815;43.410;11.852;2022-07-10T07:58:12;26.70;37.80
42147;DHT22;27815;43.410;11.852;2022-07-10T08:02:14;26.90;37.70
42147;DHT22;27815;43.410;11.852;2022-07-10T08:06:17;27.20;37.60
42147;DHT22;27815;43.410;11.852;2022-07-10T08:10:22;27.50;37.00
42147;DHT22;27815;43.410;11.852;2022-07-10T08:14:25;27.40;36.80
42147;DHT22;27815;43.410;11.852;2022-07-10T08:18:28;27.50;36.60
42147;DHT22;27815;43.410;11.852;2022-07-10T08:22:32;27.80;36.10
42147;DHT22;27815;43.410;11.852;2022-07-10T08:26:35;28.20;34.20
42147;DHT22;27815;43.410;11.852;2022-07-10T08:30:38;28.40;33.60
42147;DHT22;27815;43.410;11.852;2022-07-10T08:34:43;28.60;32.90
42147;DHT22;27815;43.410;11.852;2022-07-10T08:38:46;28.70;32.00
42147;DHT22;27815;43.410;11.852;2022-07-10T08:42:49;29.00;31.90
42147;DHT22;27815;43.410;11.852;2022-07-10T08:46:52;29.20;30.90
42147;DHT22;27815;43.410;11.852;2022-07-10T08:50:57;29.40;30.80
42147;DHT22;27815;43.410;11.852;2022-07-10T08:55:01;29.50;30.50
42147;DHT22;27815;43.410;11.852;2022-07-10T08:59:05;29.50;30.20
42147;DHT22;27815;43.410;11.852;2022-07-10T09:03:10;29.30;29.90
42147;DHT22;27815;43.410;11.852;2022-07-10T09:07:13;29.30;29.70
42147;DHT22;27815;43.410;11.852;2022-07-10T09:11:17;29.20;29.80
42147;DHT22;27815;43.410;11.852;2022-07-10T09:15:22;29.30;29.70
42147;DHT22;27815;43.410;11.852;2022-07-10T09:19:27;29.50;29.80
42147;DHT22;27815;43.410;11.852;2022-07-10T09:23:31;29.50;29.40
42147;DHT22;27815;43.410;11.852;2022-07-10T09:27:52;29.70;30.10
42147;DHT22;27815;43.410;11.852;2022-07-10T09:32:02;29.80;30.00
42147;DHT22;27815;43.410;11.852;2022-07-10T09:36:07;29.90;30.10
42147;DHT22;27815;43.410;11.852;2022-07-10T09:40:11;29.90;30.20
42147;DHT22;27815;43.410;11.852;2022-07-10T09:44:40;29.90;29.90
42147;DHT22;27815;43.410;11.852;2022-07-10T09:48:47;29.80;30.10
42147;DHT22;27815;43.410;11.852;2022-07-10T09:53:07;29.90;30.20
42147;DHT22;27815;43.410;11.852;2022-07-10T09:57:16;30.00;30.20
42147;DHT22;27815;43.410;11.852;2022-07-10T10:01:20;30.10;30.10
42147;DHT22;27815;43.410;11.852;2022-07-10T10:05:39;30.20;30.10
42147;DHT22;27815;43.410;11.852;2022-07-10T10:09:48;30.20;30.20
42147;DHT22;27815;43.410;11.852;2022-07-10T10:13:53;30.10;30.10
42147;DHT22;27815;43.410;11.852;2022-07-10T10:17:58;30.00;30.20
42147;DHT22;27815;43.410;11.852;2022-07-10T10:22:01;29.90;30.00
42147;DHT22;27815;43.410;11.852;2022-07-10T10:26:05;30.00;30.00
42147;DHT22;27815;43.410;11.852;2022-07-10T10:30:08;30.30;30.00
42147;DHT22;27815;43.410;11.852;2022-07-10T10:34:11;30.50;29.70
42147;DHT22;27815;43.410;11.852;2022-07-10T10:38:15;30.50;29.60
42147;DHT22;27815;43.410;11.852;2022-07-10T10:42:35;30.20;29.20
42147;DHT22;27815;43.410;11.852;2022-07-10T10:50:56;30.20;29.80
42147;DHT22;27815;43.410;11.852;2022-07-10T10:55:00;30.40;29.70
42147;DHT22;27815;43.410;11.852;2022-07-10T10:59:06;30.50;29.20
42147;DHT22;27815;43.410;11.852;2022-07-10T11:03:27;30.60;29.20
42147;DHT22;27815;43.410;11.852;2022-07-10T11:12:02;30.70;28.90
42147;DHT22;27815;43.410;11.852;2022-07-10T11:16:12;30.80;29.00
42147;DHT22;27815;43.410;11.852;2022-07-10T11:20:17;31.00;28.80
42147;DHT22;27815;43.410;11.852;2022-07-10T11:24:33;31.00;28.60
42147;DHT22;27815;43.410;11.852;2022-07-10T11:29:00;31.10;28.60
42147;DHT22;27815;43.410;11.852;2022-07-10T11:33:04;31.10;28.20
42147;DHT22;27815;43.410;11.852;2022-07-10T11:37:17;31.00;27.90
42147;DHT22;27815;43.410;11.852;2022-07-10T11:41:20;31.00;27.40
42147;DHT22;27815;43.410;11.852;2022-07-10T11:45:27;30.90;27.60
42147;DHT22;27815;43.410;11.852;2022-07-10T11:49:30;31.00;27.50
42147;DHT22;27815;43.410;11.852;2022-07-10T11:53:35;31.00;26.90
42147;DHT22;27815;43.410;11.852;2022-07-10T11:57:39;31.00;26.50
42147;DHT22;27815;43.410;11.852;2022-07-10T12:01:46;31.20;26.40
42147;DHT22;27815;43.410;11.852;2022-07-10T12:05:49;31.20;26.60
42147;DHT22;27815;43.410;11.852;2022-07-10T12:09:53;31.20;26.40
42147;DHT22;27815;43.410;11.852;2022-07-10T12:14:19;31.20;26.40
42147;DHT22;27815;43.410;11.852;2022-07-10T12:18:22;31.50;26.40
42147;DHT22;27815;43.410;11.852;2022-07-10T12:22:26;31.60;26.00
42147;DHT22;27815;43.410;11.852;2022-07-10T12:26:34;31.80;26.00
42147;DHT22;27815;43.410;11.852;2022-07-10T12:30:39;32.10;25.60
42147;DHT22;27815;43.410;11.852;2022-07-10T12:34:44;32.20;25.40
42147;DHT22;27815;43.410;11.852;2022-07-10T12:38:56;32.40;25.10
42147;DHT22;27815;43.410;11.852;2022-07-10T12:43:04;32.40;25.20
42147;DHT22;27815;43.410;11.852;2022-07-10T12:47:19;32.50;24.60
42147;DHT22;27815;43.410;11.852;2022-07-10T12:51:27;32.50;24.90
42147;DHT22;27815;43.410;11.852;2022-07-10T12:55:52;32.70;24.50
42147;DHT22;27815;43.410;11.852;2022-07-10T13:00:05;32.70;24.50
42147;DHT22;27815;43.410;11.852;2022-07-10T13:04:09;32.40;24.40
42147;DHT22;27815;43.410;11.852;2022-07-10T13:08:19;32.40;24.10
42147;DHT22;27815;43.410;11.852;2022-07-10T13:12:24;32.30;24.40
42147;DHT22;27815;43.410;11.852;2022-07-10T13:16:30;32.40;24.20
42147;DHT22;27815;43.410;11.852;2022-07-10T13:20:33;32.40;24.20
42147;DHT22;27815;43.410;11.852;2022-07-10T13:24:39;32.20;24.10
42147;DHT22;27815;43.410;11.852;2022-07-10T13:28:42;32.40;24.40
42147;DHT22;27815;43.410;11.852;2022-07-10T13:32:45;32.40;23.80
42147;DHT22;27815;43.410;11.852;2022-07-10T13:36:49;32.40;23.90
42147;DHT22;27815;43.410;11.852;2022-07-10T13:40:53;32.50;23.80
42147;DHT22;27815;43.410;11.852;2022-07-10T13:44:58;32.50;23.80
42147;DHT22;27815;43.410;11.852;2022-07-10T13:49:01;32.60;24.10
42147;DHT22;27815;43.410;11.852;2022-07-10T13:53:04;32.90;23.90
42147;DHT22;27815;43.410;11.852;2022-07-10T13:57:07;33.00;23.80
42147;DHT22;27815;43.410;11.852;2022-07-10T14:01:10;33.10;23.50
42147;DHT22;27815;43.410;11.852;2022-07-10T14:05:14;33.10;23.70
42147;DHT22;27815;43.410;11.852;2022-07-10T14:09:19;33.30;23.30
42147;DHT22;27815;43.410;11.852;2022-07-10T14:13:23;33.30;23.40
42147;DHT22;27815;43.410;11.852;2022-07-10T14:17:26;33.50;23.60
42147;DHT22;27815;43.410;11.852;2022-07-10T14:21:31;33.90;23.30
42147;DHT22;27815;43.410;11.852;2022-07-10T14:25:34;34.10;23.30
42147;DHT22;27815;43.410;11.852;2022-07-10T14:29:43;34.30;23.40
42147;DHT22;27815;43.410;11.852;2022-07-10T14:33:46;34.10;23.10
42147;DHT22;27815;43.410;11.852;2022-07-10T14:37:49;33.80;23.30
42147;DHT22;27815;43.410;11.852;2022-07-10T14:41:52;33.80;23.60
42147;DHT22;27815;43.410;11.852;2022-07-10T14:45:55;34.20;23.50
42147;DHT22;27815;43.410;11.852;2022-07-10T14:50:05;34.20;23.10
42147;DHT22;27815;43.410;11.852;2022-07-10T14:54:11;34.10;23.20
42147;DHT22;27815;43.410;11.852;2022-07-10T14:58:17;34.10;23.00
42147;DHT22;27815;43.410;11.852;2022-07-10T15:02:20;34.00;22.70
42147;DHT22;27815;43.410;11.852;2022-07-10T15:06:23;34.20;22.80
42147;DHT22;27815;43.410;11.852;2022-07-10T15:10:26;34.70;22.90
42147;DHT22;27815;43.410;11.852;2022-07-10T15:14:29;34.60;22.60
42147;DHT22;27815;43.410;11.852;2022-07-10T15:18:32;34.60;22.70
42147;DHT22;27815;43.410;11.852;2022-07-10T15:22:35;34.50;22.50
42147;DHT22;27815;43.410;11.852;2022-07-10T15:26:38;34.50;22.70
42147;DHT22;27815;43.410;11.852;2022-07-10T15:30:41;34.20;23.10
42147;DHT22;27815;43.410;11.852;2022-07-10T15:34:46;34.10;23.40
42147;DHT22;27815;43.410;11.852;2022-07-10T15:38:49;33.90;23.60
42147;DHT22;27815;43.410;11.852;2022-07-10T15:42:53;33.60;23.80
42147;DHT22;27815;43.410;11.852;2022-07-10T15:46:56;33.40;24.10
42147;DHT22;27815;43.410;11.852;2022-07-10T15:50:59;33.20;24.40
42147;DHT22;27815;43.410;11.852;2022-07-10T15:55:02;33.00;24.50
42147;DHT22;27815;43.410;11.852;2022-07-10T15:59:05;32.90;24.70
42147;DHT22;27815;43.410;11.852;2022-07-10T16:03:08;32.90;24.90
42147;DHT22;27815;43.410;11.852;2022-07-10T16:07:11;32.80;25.00
42147;DHT22;27815;43.410;11.852;2022-07-10T16:11:15;32.70;25.20
42147;DHT22;27815;43.410;11.852;2022-07-10T16:15:20;32.60;25.40
42147;DHT22;27815;43.410;11.852;2022-07-10T16:19:23;32.80;25.10
42147;DHT22;27815;43.410;11.852;2022-07-10T16:23:26;32.90;25.30
42147;DHT22;27815;43.410;11.852;2022-07-10T16:27:29;32.90;25.50
42147;DHT22;27815;43.410;11.852;2022-07-10T16:31:32;32.80;25.60
42147;DHT22;27815;43.410;11.852;2022-07-10T16:35:41;32.70;25.80
42147;DHT22;27815;43.410;11.852;2022-07-10T16:39:44;32.50;26.50
42147;DHT22;27815;43.410;11.852;2022-07-10T16:43:47;32.50;27.20
42147;DHT22;27815;43.410;11.852;2022-07-10T16:47:49;32.70;27.30
42147;DHT22;27815;43.410;11.852;2022-07-10T16:51:53;33.00;27.20
42147;DHT22;27815;43.410;11.852;2022-07-10T16:55:55;32.70;27.50
42147;DHT22;27815;43.410;11.852;2022-07-10T16:59:58;32.70;27.80
42147;DHT22;27815;43.410;11.852;2022-07-10T17:04:02;34.50;26.20
42147;DHT22;27815;43.410;11.852;2022-07-10T17:08:05;36.60;23.90
42147;DHT22;27815;43.410;11.852;2022-07-10T17:12:12;38.30;22.40
42147;DHT22;27815;43.410;11.852;2022-07-10T17:16:15;39.30;21.50
42147;DHT22;27815;43.410;11.852;2022-07-10T17:20:18;38.50;22.10
42147;DHT22;27815;43.410;11.852;2022-07-10T17:24:20;37.10;23.30
42147;DHT22;27815;43.410;11.852;2022-07-10T17:28:24;36.50;23.70
42147;DHT22;27815;43.410;11.852;2022-07-10T17:32:27;37.20;23.20
42147;DHT22;27815;43.410;11.852;2022-07-10T17:36:31;37.20;22.90
42147;DHT22;27815;43.410;11.852;2022-07-10T17:40:33;36.10;23.40
42147;DHT22;27815;43.410;11.852;2022-07-10T17:44:36;35.20;23.80
42147;DHT22;27815;43.410;11.852;2022-07-10T17:48:40;34.50;25.10
42147;DHT22;27815;43.410;11.852;2022-07-10T17:52:43;34.10;25.90
42147;DHT22;27815;43.410;11.852;2022-07-10T17:56:47;34.00;26.30
42147;DHT22;27815;43.410;11.852;2022-07-10T18:00:50;34.20;26.30
42147;DHT22;27815;43.410;11.852;2022-07-10T18:04:53;34.00;26.50
42147;DHT22;27815;43.410;11.852;2022-07-10T18:08:56;33.80;27.00
42147;DHT22;27815;43.410;11.852;2022-07-10T18:13:01;33.40;26.60
42147;DHT22;27815;43.410;11.852;2022-07-10T18:17:04;32.90;26.30
42147;DHT22;27815;43.410;11.852;2022-07-10T18:21:08;32.50;26.30
42147;DHT22;27815;43.410;11.852;2022-07-10T18:25:11;32.10;26.30
42147;DHT22;27815;43.410;11.852;2022-07-10T18:29:14;32.00;26.40
42147;DHT22;27815;43.410;11.852;2022-07-10T18:33:17;32.60;25.90
42147;DHT22;27815;43.410;11.852;2022-07-10T18:37:58;33.00;25.70
42147;DHT22;27815;43.410;11.852;2022-07-10T18:42:02;32.80;25.70
42147;DHT22;27815;43.410;11.852;2022-07-10T18:46:05;32.00;26.20
42147;DHT22;27815;43.410;11.852;2022-07-10T18:50:08;31.40;26.70
42147;DHT22;27815;43.410;11.852;2022-07-10T18:54:12;30.90;27.80
42147;DHT22;27815;43.410;11.852;2022-07-10T18:58:15;30.10;28.80
42147;DHT22;27815;43.410;11.852;2022-07-10T19:02:18;29.60;29.40
42147;DHT22;27815;43.410;11.852;2022-07-10T19:06:22;29.40;29.60
42147;DHT22;27815;43.410;11.852;2022-07-10T19:10:25;29.30;30.20
42147;DHT22;27815;43.410;11.852;2022-07-10T19:14:28;29.10;30.80
42147;DHT22;27815;43.410;11.852;2022-07-10T19:18:32;28.70;31.40
42147;DHT22;27815;43.410;11.852;2022-07-10T19:22:35;28.50;31.50
42147;DHT22;27815;43.410;11.852;2022-07-10T19:26:38;28.30;31.60
42147;DHT22;27815;43.410;11.852;2022-07-10T19:30:41;28.20;32.40
42147;DHT22;27815;43.410;11.852;2022-07-10T19:34:44;27.80;33.00
42147;DHT22;27815;43.410;11.852;2022-07-10T19:38:47;27.50;33.60
42147;DHT22;27815;43.410;11.852;2022-07-10T19:42:50;27.40;33.70
42147;DHT22;27815;43.410;11.852;2022-07-10T19:46:53;27.10;34.00
42147;DHT22;27815;43.410;11.852;2022-07-10T19:50:56;26.90;34.30
42147;DHT22;27815;43.410;11.852;2022-07-10T19:55:08;26.80;34.50
42147;DHT22;27815;43.410;11.852;2022-07-10T19:59:11;26.50;34.70
42147;DHT22;27815;43.410;11.852;2022-07-10T20:03:14;26.30;35.10
42147;DHT22;27815;43.410;11.852;2022-07-10T20:07:17;26.20;35.20
42147;DHT22;27815;43.410;11.852;2022-07-10T20:11:20;26.10;35.30
42147;DHT22;27815;43.410;11.852;2022-07-10T20:15:25;26.00;35.40
42147;DHT22;27815;43.410;11.852;2022-07-10T20:19:47;26.00;35.30
42147;DHT22;27815;43.410;11.852;2022-07-10T20:23:50;26.10;35.10
42147;DHT22;27815;43.410;11.852;2022-07-10T20:27:53;26.20;34.90
42147;DHT22;27815;43.410;11.852;2022-07-10T20:31:57;26.40;35.00
42147;DHT22;27815;43.410;11.852;2022-07-10T20:36:00;26.30;35.10
42147;DHT22;27815;43.410;11.852;2022-07-10T20:40:21;26.10;35.30
42147;DHT22;27815;43.410;11.852;2022-07-10T20:44:25;26.00;35.70
42147;DHT22;27815;43.410;11.852;2022-07-10T20:48:28;25.80;35.80
42147;DHT22;27815;43.410;11.852;2022-07-10T20:52:31;25.60;36.20
42147;DHT22;27815;43.410;11.852;2022-07-10T20:56:34;25.50;36.50
42147;DHT22;27815;43.410;11.852;2022-07-10T21:00:37;25.30;36.80
42147;DHT22;27815;43.410;11.852;2022-07-10T21:04:40;25.10;37.00
42147;DHT22;27815;43.410;11.852;2022-07-10T21:08:42;25.00;37.20
42147;DHT22;27815;43.410;11.852;2022-07-10T21:12:46;24.90;37.40
42147;DHT22;27815;43.410;11.852;2022-07-10T21:16:49;24.80;37.70
42147;DHT22;27815;43.410;11.852;2022-07-10T21:20:52;24.60;37.90
42147;DHT22;27815;43.410;11.852;2022-07-10T21:24:56;24.50;37.90
42147;DHT22;27815;43.410;11.852;2022-07-10T21:28:59;24.50;38.00
42147;DHT22;27815;43.410;11.852;2022-07-10T21:33:03;24.40;38.20
42147;DHT22;27815;43.410;11.852;2022-07-10T21:37:05;24.40;38.40
42147;DHT22;27815;43.410;11.852;2022-07-10T21:41:08;24.20;38.70
42147;DHT22;27815;43.410;11.852;2022-07-10T21:45:11;24.10;39.40
42147;DHT22;27815;43.410;11.852;2022-07-10T21:49:14;24.00;39.60
42147;DHT22;27815;43.410;11.852;2022-07-10T21:53:17;23.90;40.00
42147;DHT22;27815;43.410;11.852;2022-07-10T21:57:20;23.70;40.30
42147;DHT22;27815;43.410;11.852;2022-07-10T22:01:23;23.60;40.50
42147;DHT22;27815;43.410;11.852;2022-07-10T22:05:26;23.50;40.70
42147;DHT22;27815;43.410;11.852;2022-07-10T22:09:29;23.50;40.80
42147;DHT22;27815;43.410;11.852;2022-07-10T22:13:31;23.40;40.80
42147;DHT22;27815;43.410;11.852;2022-07-10T22:17:34;23.50;40.70
42147;DHT22;27815;43.410;11.852;2022-07-10T22:21:42;23.50;40.70
42147;DHT22;27815;43.410;11.852;2022-07-10T22:25:44;23.50;40.60
42147;DHT22;27815;43.410;11.852;2022-07-10T22:29:47;23.50;40.50
42147;DHT22;27815;43.410;11.852;2022-07-10T22:33:52;23.50;40.60
42147;DHT22;27815;43.410;11.852;2022-07-10T22:38:01;23.50;40.60
42147;DHT22;27815;43.410;11.852;2022-07-10T22:42:04;23.50;40.60
42147;DHT22;27815;43.410;11.852;2022-07-10T22:46:08;23.40;40.60
42147;DHT22;27815;43.410;11.852;2022-07-10T22:50:11;23.30;40.70
42147;DHT22;27815;43.410;11.852;2022-07-10T22:54:15;23.30;40.90
42147;DHT22;27815;43.410;11.852;2022-07-10T22:58:18;23.20;40.90
42147;DHT22;27815;43.410;11.852;2022-07-10T23:02:21;23.10;41.20
42147;DHT22;27815;43.410;11.852;2022-07-10T23:06:24;23.00;41.60
42147;DHT22;27815;43.410;11.852;2022-07-10T23:10:27;22.90;41.70
42147;DHT22;27815;43.410;11.852;2022-07-10T23:14:30;22.80;41.90
42147;DHT22;27815;43.410;11.852;2022-07-10T23:18:33;22.70;42.00
42147;DHT22;27815;43.410;11.852;2022-07-10T23:22:40;22.50;42.40
42147;DHT22;27815;43.410;11.852;2022-07-10T23:26:43;22.40;42.80
42147;DHT22;27815;43.410;11.852;2022-07-10T23:30:46;22.30;43.00
42147;DHT22;27815;43.410;11.852;2022-07-10T23:34:49;22.20;43.30
42147;DHT22;27815;43.410;11.852;2022-07-10T23:38:52;22.10;43.50
42147;DHT22;27815;43.410;11.852;2022-07-10T23:42:55;22.00;43.80
42147;DHT22;27815;43.410;11.852;2022-07-10T23:46:59;22.00;43.90
42147;DHT22;27815;43.410;11.852;2022-07-10T23:51:02;22.00;44.00
42147;DHT22;27815;43.410;11.852;2022-07-10T23:55:06;22.00;44.00
42147;DHT22;27815;43.410;11.852;2022-07-10T23:59:09;22.00;43.90
